Terminal Aerodrome Forecast
Issued by NWS

Home | Current Version | Previous Version | Text Only | Print | Product List | Glossary On
Versions: 1 2 3 4 5 6 7 8 9 10 11 12 13
000
FTUS44 KLZK 211120
TAFLIT
TAF
KLIT 211120Z 2112/2212 VRB06KT P6SM BKN120
     FM211400 12008G16KT P6SM VCSH SCT080 OVC150
     FM212300 10008G16KT P6SM VCTS SCT050CB BKN100 PROB30 2123/2204
      5SM -TSRA BR OVC025CB
     FM220400 10006KT 4SM -SHRA BR VCTS BKN015 OVC035CB PROB30
      2204/2210 1SM -TSRA BR BKN008 OVC015CB=

USA.gov is the U.S. government's official web portal to all federal, state and local government web resources and services.